sensor_id;sensor_type;location;lat;lon;timestamp;pressure;altitude;pressure_sealevel;temperature;humidity
53689;BME280;39583;54.682;30.662;2022-07-21T11:10:30;99043.47;;;25.29;54.71
53689;BME280;39583;54.682;30.662;2022-07-21T11:12:58;99060.34;;;25.19;55.13
53689;BME280;39583;54.682;30.662;2022-07-21T11:15:57;99035.69;;;25.22;55.35
53689;BME280;39583;54.682;30.662;2022-07-21T11:18:28;99028.69;;;25.42;55.36
53689;BME280;39583;54.682;30.662;2022-07-21T11:21:13;99039.88;;;25.93;53.92
53689;BME280;39583;54.682;30.662;2022-07-21T11:23:42;99039.78;;;26.10;53.21
53689;BME280;39583;54.682;30.662;2022-07-21T11:26:10;99044.16;;;26.11;52.70
53689;BME280;39583;54.682;30.662;2022-07-21T11:28:37;99036.94;;;25.98;52.14
53689;BME280;39583;54.682;30.662;2022-07-21T11:31:18;99037.63;;;25.86;52.39
53689;BME280;39583;54.682;30.662;2022-07-21T11:33:50;99030.06;;;26.04;51.18
53689;BME280;39583;54.682;30.662;2022-07-21T11:39:08;99048.63;;;26.54;51.10
53689;BME280;39583;54.682;30.662;2022-07-21T11:41:36;99033.75;;;26.67;50.67
53689;BME280;39583;54.682;30.662;2022-07-21T11:44:08;99040.97;;;26.59;51.30
53689;BME280;39583;54.682;30.662;2022-07-21T11:46:52;99033.09;;;26.70;51.17
53689;BME280;39583;54.682;30.662;2022-07-21T11:49:19;99035.88;;;26.70;50.79
53689;BME280;39583;54.682;30.662;2022-07-21T11:54:28;99042.91;;;26.29;51.92
53689;BME280;39583;54.682;30.662;2022-07-21T11:56:56;99048.63;;;25.95;52.34
53689;BME280;39583;54.682;30.662;2022-07-21T11:59:24;99065.28;;;25.51;53.17
53689;BME280;39583;54.682;30.662;2022-07-21T12:01:56;99040.53;;;25.25;53.54
53689;BME280;39583;54.682;30.662;2022-07-21T12:04:36;99047.50;;;25.23;53.35
53689;BME280;39583;54.682;30.662;2022-07-21T12:09:43;99025.19;;;24.90;54.37
53689;BME280;39583;54.682;30.662;2022-07-21T12:12:10;99037.19;;;25.03;54.55
53689;BME280;39583;54.682;30.662;2022-07-21T12:14:45;99032.78;;;25.27;53.58
53689;BME280;39583;54.682;30.662;2022-07-21T12:17:13;99031.25;;;25.47;53.66
53689;BME280;39583;54.682;30.662;2022-07-21T12:19:40;99031.88;;;25.70;53.04
53689;BME280;39583;54.682;30.662;2022-07-21T12:22:07;99031.88;;;26.00;53.05
53689;BME280;39583;54.682;30.662;2022-07-21T12:24:54;99034.38;;;26.22;52.46
53689;BME280;39583;54.682;30.662;2022-07-21T12:27:21;99039.63;;;26.44;51.73
53689;BME280;39583;54.682;30.662;2022-07-21T12:29:51;99039.16;;;26.63;50.40
53689;BME280;39583;54.682;30.662;2022-07-21T12:32:41;99038.06;;;26.56;49.97
53689;BME280;39583;54.682;30.662;2022-07-21T12:35:24;99036.94;;;26.57;49.11
53689;BME280;39583;54.682;30.662;2022-07-21T12:38:03;99036.66;;;26.50;48.97
53689;BME280;39583;54.682;30.662;2022-07-21T12:40:32;99028.97;;;26.76;49.60
53689;BME280;39583;54.682;30.662;2022-07-21T12:43:14;99028.16;;;27.17;48.89
53689;BME280;39583;54.682;30.662;2022-07-21T12:45:50;99017.50;;;27.07;48.47
53689;BME280;39583;54.682;30.662;2022-07-21T12:48:20;99032.31;;;26.69;48.47
53689;BME280;39583;54.682;30.662;2022-07-21T12:53:43;99034.69;;;26.50;49.21
53689;BME280;39583;54.682;30.662;2022-07-21T12:56:11;99034.44;;;26.85;48.68
53689;BME280;39583;54.682;30.662;2022-07-21T12:58:39;99056.81;;;26.71;48.57
53689;BME280;39583;54.682;30.662;2022-07-21T13:01:06;99029.75;;;26.35;49.53
53689;BME280;39583;54.682;30.662;2022-07-21T13:03:33;99047.28;;;26.01;49.32
53689;BME280;39583;54.682;30.662;2022-07-21T13:06:02;99047.25;;;25.63;50.64
53689;BME280;39583;54.682;30.662;2022-07-21T13:08:29;99048.78;;;25.34;51.31
53689;BME280;39583;54.682;30.662;2022-07-21T13:10:58;99049.28;;;25.36;52.00
53689;BME280;39583;54.682;30.662;2022-07-21T13:13:26;99042.38;;;25.68;51.79
53689;BME280;39583;54.682;30.662;2022-07-21T13:15:54;99042.75;;;26.05;51.13
53689;BME280;39583;54.682;30.662;2022-07-21T13:18:23;99021.28;;;26.40;50.85
53689;BME280;39583;54.682;30.662;2022-07-21T13:20:54;99028.66;;;26.57;50.51
53689;BME280;39583;54.682;30.662;2022-07-21T13:23:21;99049.19;;;26.47;50.57
53689;BME280;39583;54.682;30.662;2022-07-21T13:25:49;99031.41;;;26.27;50.90
53689;BME280;39583;54.682;30.662;2022-07-21T13:28:16;99037.19;;;26.43;51.40
53689;BME280;39583;54.682;30.662;2022-07-21T13:30:46;99042.31;;;26.53;51.01
53689;BME280;39583;54.682;30.662;2022-07-21T13:33:14;99026.56;;;26.24;50.72
53689;BME280;39583;54.682;30.662;2022-07-21T13:35:40;99040.00;;;26.05;51.39
53689;BME280;39583;54.682;30.662;2022-07-21T13:38:07;99046.22;;;25.93;50.39
53689;BME280;39583;54.682;30.662;2022-07-21T13:40:33;99065.84;;;25.92;50.42
53689;BME280;39583;54.682;30.662;2022-07-21T13:42:59;99055.63;;;25.92;50.55
53689;BME280;39583;54.682;30.662;2022-07-21T13:45:26;99059.81;;;25.98;50.02
53689;BME280;39583;54.682;30.662;2022-07-21T13:47:52;99072.19;;;25.92;49.80
53689;BME280;39583;54.682;30.662;2022-07-21T13:50:19;99069.69;;;25.52;50.47
53689;BME280;39583;54.682;30.662;2022-07-21T13:52:45;99047.19;;;25.33;50.59
53689;BME280;39583;54.682;30.662;2022-07-21T13:55:11;99054.66;;;25.07;51.18
53689;BME280;39583;54.682;30.662;2022-07-21T13:57:38;99052.69;;;24.73;52.05
53689;BME280;39583;54.682;30.662;2022-07-21T14:00:09;99057.19;;;24.42;52.77
53689;BME280;39583;54.682;30.662;2022-07-21T14:02:36;99053.38;;;24.12;53.88
53689;BME280;39583;54.682;30.662;2022-07-21T14:05:03;99066.56;;;23.93;54.43
53689;BME280;39583;54.682;30.662;2022-07-21T14:07:30;99055.56;;;23.93;54.75
53689;BME280;39583;54.682;30.662;2022-07-21T14:09:58;99071.69;;;24.26;54.20
53689;BME280;39583;54.682;30.662;2022-07-21T14:12:25;99061.44;;;24.57;53.95
53689;BME280;39583;54.682;30.662;2022-07-21T14:14:51;99072.78;;;24.82;53.80
53689;BME280;39583;54.682;30.662;2022-07-21T14:17:18;99065.53;;;25.03;53.44
53689;BME280;39583;54.682;30.662;2022-07-21T14:19:44;99064.22;;;25.09;53.38
53689;BME280;39583;54.682;30.662;2022-07-21T14:22:15;99073.31;;;25.27;53.17
53689;BME280;39583;54.682;30.662;2022-07-21T14:24:49;99061.94;;;25.28;53.27
53689;BME280;39583;54.682;30.662;2022-07-21T14:27:33;99048.19;;;25.20;53.34
53689;BME280;39583;54.682;30.662;2022-07-21T14:30:00;99052.06;;;25.19;54.05
53689;BME280;39583;54.682;30.662;2022-07-21T14:32:27;99064.03;;;25.23;54.14
53689;BME280;39583;54.682;30.662;2022-07-21T14:34:54;99069.72;;;25.26;54.33
53689;BME280;39583;54.682;30.662;2022-07-21T14:37:20;99063.72;;;25.33;54.13
53689;BME280;39583;54.682;30.662;2022-07-21T14:39:48;99064.03;;;25.40;53.93
53689;BME280;39583;54.682;30.662;2022-07-21T14:42:16;99060.75;;;25.47;53.94
53689;BME280;39583;54.682;30.662;2022-07-21T14:44:45;99051.81;;;25.67;53.99
53689;BME280;39583;54.682;30.662;2022-07-21T14:47:17;99064.81;;;26.05;53.28
53689;BME280;39583;54.682;30.662;2022-07-21T14:49:43;99065.81;;;26.30;52.79
53689;BME280;39583;54.682;30.662;2022-07-21T14:52:10;99073.56;;;26.45;51.88
53689;BME280;39583;54.682;30.662;2022-07-21T14:54:38;99067.84;;;26.50;51.70
53689;BME280;39583;54.682;30.662;2022-07-21T14:57:07;99080.56;;;26.63;51.69
53689;BME280;39583;54.682;30.662;2022-07-21T14:59:39;99072.25;;;26.72;51.09
53689;BME280;39583;54.682;30.662;2022-07-21T15:02:08;99072.75;;;26.65;51.12
53689;BME280;39583;54.682;30.662;2022-07-21T15:04:35;99060.44;;;26.63;51.57
53689;BME280;39583;54.682;30.662;2022-07-21T15:07:01;99080.72;;;26.67;51.59
53689;BME280;39583;54.682;30.662;2022-07-21T15:09:29;99080.53;;;26.72;51.07
53689;BME280;39583;54.682;30.662;2022-07-21T15:11:57;99071.91;;;26.73;51.13
53689;BME280;39583;54.682;30.662;2022-07-21T15:14:23;99083.91;;;26.98;50.47
53689;BME280;39583;54.682;30.662;2022-07-21T15:16:50;99092.41;;;27.14;50.53
53689;BME280;39583;54.682;30.662;2022-07-21T15:19:20;99086.63;;;27.40;49.96
53689;BME280;39583;54.682;30.662;2022-07-21T15:21:48;99079.88;;;27.50;49.19
53689;BME280;39583;54.682;30.662;2022-07-21T15:24:15;99100.97;;;27.54;49.21
53689;BME280;39583;54.682;30.662;2022-07-21T15:26:44;99117.22;;;27.56;48.55
53689;BME280;39583;54.682;30.662;2022-07-21T15:29:11;99116.81;;;27.45;49.34
53689;BME280;39583;54.682;30.662;2022-07-21T15:31:37;99123.59;;;27.36;49.79
53689;BME280;39583;54.682;30.662;2022-07-21T15:34:04;99130.00;;;27.07;50.07
53689;BME280;39583;54.682;30.662;2022-07-21T15:36:30;99140.91;;;26.53;50.61
53689;BME280;39583;54.682;30.662;2022-07-21T15:38:57;99152.47;;;25.91;52.10
53689;BME280;39583;54.682;30.662;2022-07-21T15:41:26;99145.09;;;25.39;53.25
53689;BME280;39583;54.682;30.662;2022-07-21T15:43:56;99164.16;;;24.92;53.59
53689;BME280;39583;54.682;30.662;2022-07-21T15:46:25;99168.75;;;24.49;54.19
53689;BME280;39583;54.682;30.662;2022-07-21T15:48:51;99173.44;;;24.17;54.67
53689;BME280;39583;54.682;30.662;2022-07-21T15:51:18;99166.66;;;23.83;55.51
53689;BME280;39583;54.682;30.662;2022-07-21T15:53:45;99180.97;;;23.72;55.72
53689;BME280;39583;54.682;30.662;2022-07-21T15:56:13;99179.38;;;23.57;56.01
53689;BME280;39583;54.682;30.662;2022-07-21T15:58:40;99194.16;;;23.47;56.16
53689;BME280;39583;54.682;30.662;2022-07-21T16:01:27;99199.41;;;23.35;56.62
53689;BME280;39583;54.682;30.662;2022-07-21T16:03:56;99208.88;;;23.29;57.14
53689;BME280;39583;54.682;30.662;2022-07-21T16:06:22;99203.81;;;23.22;57.27
53689;BME280;39583;54.682;30.662;2022-07-21T16:08:49;99206.56;;;23.22;57.75
53689;BME280;39583;54.682;30.662;2022-07-21T16:11:15;99207.97;;;23.34;57.62
53689;BME280;39583;54.682;30.662;2022-07-21T16:13:41;99211.34;;;23.53;57.52
53689;BME280;39583;54.682;30.662;2022-07-21T16:16:08;99213.38;;;24.77;55.48
53689;BME280;39583;54.682;30.662;2022-07-21T16:18:40;99212.84;;;25.66;52.28
53689;BME280;39583;54.682;30.662;2022-07-21T16:21:06;99211.38;;;25.34;53.04
53689;BME280;39583;54.682;30.662;2022-07-21T16:23:35;99222.94;;;25.79;52.33
53689;BME280;39583;54.682;30.662;2022-07-21T16:26:02;99218.31;;;26.18;50.23
53689;BME280;39583;54.682;30.662;2022-07-21T16:28:28;99219.34;;;25.62;51.22
53689;BME280;39583;54.682;30.662;2022-07-21T16:30:54;99226.31;;;25.33;51.92
53689;BME280;39583;54.682;30.662;2022-07-21T16:33:21;99230.84;;;26.62;50.09
53689;BME280;39583;54.682;30.662;2022-07-21T16:35:48;99229.09;;;28.12;47.35
53689;BME280;39583;54.682;30.662;2022-07-21T16:38:14;99228.41;;;28.85;44.65
53689;BME280;39583;54.682;30.662;2022-07-21T16:40:40;99229.69;;;29.24;43.61
53689;BME280;39583;54.682;30.662;2022-07-21T16:43:07;99231.59;;;29.60;43.02
53689;BME280;39583;54.682;30.662;2022-07-21T16:45:34;99233.19;;;29.89;42.10
53689;BME280;39583;54.682;30.662;2022-07-21T16:48:03;99226.94;;;29.12;42.48
53689;BME280;39583;54.682;30.662;2022-07-21T16:50:32;99223.13;;;27.77;44.68
53689;BME280;39583;54.682;30.662;2022-07-21T16:52:59;99239.63;;;26.56;47.29
53689;BME280;39583;54.682;30.662;2022-07-21T16:55:25;99234.28;;;25.69;48.68
53689;BME280;39583;54.682;30.662;2022-07-21T16:57:55;99244.59;;;25.03;49.90
53689;BME280;39583;54.682;30.662;2022-07-21T17:00:21;99233.91;;;24.62;51.07
53689;BME280;39583;54.682;30.662;2022-07-21T17:02:47;99231.53;;;24.38;51.39
53689;BME280;39583;54.682;30.662;2022-07-21T17:05:14;99244.81;;;24.45;51.41
53689;BME280;39583;54.682;30.662;2022-07-21T17:07:44;99229.50;;;24.61;50.76
53689;BME280;39583;54.682;30.662;2022-07-21T17:10:13;99247.06;;;24.82;50.61
53689;BME280;39583;54.682;30.662;2022-07-21T17:12:46;99246.59;;;25.54;49.24
53689;BME280;39583;54.682;30.662;2022-07-21T17:15:19;99253.03;;;26.36;47.67
53689;BME280;39583;54.682;30.662;2022-07-21T17:17:45;99247.97;;;26.85;46.43
53689;BME280;39583;54.682;30.662;2022-07-21T17:20:12;99252.91;;;27.09;45.95
53689;BME280;39583;54.682;30.662;2022-07-21T17:22:39;99258.91;;;27.32;45.24
53689;BME280;39583;54.682;30.662;2022-07-21T17:25:07;99256.06;;;27.20;45.99
53689;BME280;39583;54.682;30.662;2022-07-21T17:27:34;99263.16;;;27.09;45.84
53689;BME280;39583;54.682;30.662;2022-07-21T17:30:01;99273.66;;;26.77;46.30
53689;BME280;39583;54.682;30.662;2022-07-21T17:32:27;99273.97;;;26.20;47.00
53689;BME280;39583;54.682;30.662;2022-07-21T17:34:54;99274.25;;;25.15;49.24
53689;BME280;39583;54.682;30.662;2022-07-21T17:37:26;99277.09;;;24.53;50.87
53689;BME280;39583;54.682;30.662;2022-07-21T17:39:52;99270.28;;;24.50;51.34
53689;BME280;39583;54.682;30.662;2022-07-21T17:42:19;99268.59;;;23.96;52.39
53689;BME280;39583;54.682;30.662;2022-07-21T17:44:46;99281.31;;;23.33;53.83
53689;BME280;39583;54.682;30.662;2022-07-21T17:47:15;99277.16;;;22.81;55.11
53689;BME280;39583;54.682;30.662;2022-07-21T17:49:42;99277.94;;;22.40;56.42
53689;BME280;39583;54.682;30.662;2022-07-21T17:52:11;99273.66;;;22.01;57.36
53689;BME280;39583;54.682;30.662;2022-07-21T17:54:38;99277.16;;;21.69;58.25
53689;BME280;39583;54.682;30.662;2022-07-21T17:57:05;99294.56;;;21.41;58.92
53689;BME280;39583;54.682;30.662;2022-07-21T17:59:51;99290.84;;;21.08;59.79
53689;BME280;39583;54.682;30.662;2022-07-21T18:02:22;99286.22;;;20.84;60.71
53689;BME280;39583;54.682;30.662;2022-07-21T18:04:51;99281.50;;;20.66;61.07
53689;BME280;39583;54.682;30.662;2022-07-21T18:07:18;99281.97;;;20.49;61.75
53689;BME280;39583;54.682;30.662;2022-07-21T18:09:47;99282.38;;;20.32;62.40
53689;BME280;39583;54.682;30.662;2022-07-21T18:12:15;99288.78;;;20.18;62.66
53689;BME280;39583;54.682;30.662;2022-07-21T18:14:42;99292.16;;;20.04;63.21
53689;BME280;39583;54.682;30.662;2022-07-21T18:17:09;99299.38;;;19.90;63.62
53689;BME280;39583;54.682;30.662;2022-07-21T18:19:38;99297.81;;;19.79;64.25
53689;BME280;39583;54.682;30.662;2022-07-21T18:22:11;99301.19;;;19.66;64.77
53689;BME280;39583;54.682;30.662;2022-07-21T18:24:39;99301.81;;;19.58;64.91
53689;BME280;39583;54.682;30.662;2022-07-21T18:27:06;99305.09;;;19.50;65.19
53689;BME280;39583;54.682;30.662;2022-07-21T18:29:32;99302.69;;;19.38;65.64
53689;BME280;39583;54.682;30.662;2022-07-21T18:31:59;99308.22;;;19.28;66.06
53689;BME280;39583;54.682;30.662;2022-07-21T18:34:26;99312.63;;;19.19;66.50
53689;BME280;39583;54.682;30.662;2022-07-21T18:36:59;99295.25;;;18.99;66.84
53689;BME280;39583;54.682;30.662;2022-07-21T18:39:28;99308.59;;;19.01;67.49
53689;BME280;39583;54.682;30.662;2022-07-21T18:41:57;99317.09;;;18.94;67.68
53689;BME280;39583;54.682;30.662;2022-07-21T18:44:29;99320.38;;;18.86;67.97
53689;BME280;39583;54.682;30.662;2022-07-21T18:46:55;99320.16;;;18.77;68.31
53689;BME280;39583;54.682;30.662;2022-07-21T18:49:25;99324.53;;;18.68;68.82
53689;BME280;39583;54.682;30.662;2022-07-21T18:51:54;99325.06;;;18.60;68.91
53689;BME280;39583;54.682;30.662;2022-07-21T18:54:21;99332.16;;;18.56;69.39
53689;BME280;39583;54.682;30.662;2022-07-21T18:56:48;99330.00;;;18.53;69.49
53689;BME280;39583;54.682;30.662;2022-07-21T18:59:15;99333.81;;;18.47;69.95
53689;BME280;39583;54.682;30.662;2022-07-21T19:01:42;99324.56;;;18.38;70.10
53689;BME280;39583;54.682;30.662;2022-07-21T19:04:11;99327.28;;;18.27;70.40
53689;BME280;39583;54.682;30.662;2022-07-21T19:06:42;99325.91;;;18.20;70.66
53689;BME280;39583;54.682;30.662;2022-07-21T19:09:11;99329.19;;;18.12;71.28
53689;BME280;39583;54.682;30.662;2022-07-21T19:11:42;99328.38;;;18.06;71.45
53689;BME280;39583;54.682;30.662;2022-07-21T19:14:09;99333.28;;;17.99;71.69
53689;BME280;39583;54.682;30.662;2022-07-21T19:16:36;99343.34;;;17.93;71.94
53689;BME280;39583;54.682;30.662;2022-07-21T19:19:06;99346.34;;;17.87;72.30
53689;BME280;39583;54.682;30.662;2022-07-21T19:21:35;99347.41;;;17.81;72.43
53689;BME280;39583;54.682;30.662;2022-07-21T19:24:08;99341.94;;;17.71;72.83
53689;BME280;39583;54.682;30.662;2022-07-21T19:26:35;99352.81;;;17.71;73.01
53689;BME280;39583;54.682;30.662;2022-07-21T19:29:02;99355.53;;;17.65;73.33
53689;BME280;39583;54.682;30.662;2022-07-21T19:31:31;99360.16;;;17.65;73.66
53689;BME280;39583;54.682;30.662;2022-07-21T19:33:58;99367.78;;;17.63;73.76
53689;BME280;39583;54.682;30.662;2022-07-21T19:36:25;99366.41;;;17.60;73.88
53689;BME280;39583;54.682;30.662;2022-07-21T19:38:52;99377.81;;;17.57;74.16
53689;BME280;39583;54.682;30.662;2022-07-21T19:41:19;99384.09;;;17.58;74.30
53689;BME280;39583;54.682;30.662;2022-07-21T19:43:45;99380.81;;;17.56;74.56
53689;BME280;39583;54.682;30.662;2022-07-21T19:46:13;99395.78;;;17.53;74.71
53689;BME280;39583;54.682;30.662;2022-07-21T19:48:44;99393.59;;;17.50;74.14
53689;BME280;39583;54.682;30.662;2022-07-21T19:51:11;99387.88;;;17.47;74.31
53689;BME280;39583;54.682;30.662;2022-07-21T19:53:38;99401.22;;;17.48;74.47
53689;BME280;39583;54.682;30.662;2022-07-21T19:56:08;99382.38;;;17.36;74.93
53689;BME280;39583;54.682;30.662;2022-07-21T19:58:35;99398.72;;;17.42;75.09
53689;BME280;39583;54.682;30.662;2022-07-21T20:01:02;99403.63;;;17.39;75.43
53689;BME280;39583;54.682;30.662;2022-07-21T20:03:32;99398.97;;;17.35;75.49
53689;BME280;39583;54.682;30.662;2022-07-21T20:05:58;99405.78;;;17.32;75.74
53689;BME280;39583;54.682;30.662;2022-07-21T20:08:28;99405.47;;;17.29;75.88
53689;BME280;39583;54.682;30.662;2022-07-21T20:10:54;99399.22;;;17.28;75.98
53689;BME280;39583;54.682;30.662;2022-07-21T20:13:21;99410.09;;;17.28;75.94
